Time;durP1;ratioP1;P1;durP2;ratioP2;P2;SDS_P1;SDS_P2;PMS_P1;PMS_P2;Temp;Humidity;BMP_temperature;BMP_pressure;BME280_temperature;BME280_humidity;BME280_pressure;Samples;Min_cycle;Max_cycle;Signal;HPM_P1;HPM_P2
2021/07/28 00:00:29;;;;;;;7.15;1.90;;;;;;;14.66;100.00;98870.94;4680288;30;20061;-77
2021/07/28 00:03:32;;;;;;;5.82;2.15;;;;;;;14.67;100.00;98871.69;4684464;30;20065;-77
2021/07/28 00:06:36;;;;;;;7.75;3.00;;;;;;;14.68;100.00;98874.00;4697594;30;20065;-77
2021/07/28 00:09:39;;;;;;;6.85;2.22;;;;;;;14.72;100.00;98868.09;4696583;30;20061;-77
2021/07/28 00:12:43;;;;;;;10.15;2.47;;;;;;;14.76;100.00;98869.31;4700019;30;20061;-77
2021/07/28 00:15:47;;;;;;;9.15;3.58;;;;;;;14.77;100.00;98870.06;4701326;30;20061;-77
2021/07/28 00:19:04;;;;;;;10.45;2.90;;;;;;;14.80;100.00;98864.16;4701401;30;20056;-77
2021/07/28 00:25:29;;;;;;;9.73;3.47;;;;;;;14.84;100.00;98856.22;4700103;30;20061;-77
2021/07/28 00:28:33;;;;;;;11.50;2.88;;;;;;;14.87;100.00;98857.97;4699729;30;20060;-77
2021/07/28 00:31:36;;;;;;;11.55;4.10;;;;;;;14.92;100.00;98871.13;4699241;30;20419;-77
2021/07/28 00:34:41;;;;;;;19.05;4.38;;;;;;;14.93;100.00;98855.84;4699626;30;20526;-77
2021/07/28 00:37:45;;;;;;;12.80;4.13;;;;;;;14.90;100.00;98842.88;4700401;30;20057;-77
2021/07/28 00:40:48;;;;;;;17.27;4.65;;;;;;;14.88;100.00;98842.63;4700431;30;20061;-77
2021/07/28 00:43:52;;;;;;;22.17;5.07;;;;;;;14.87;100.00;98845.97;4700888;30;20061;-77
2021/07/28 00:46:55;;;;;;;11.85;3.15;;;;;;;14.85;100.00;98843.72;4700844;30;20076;-77
2021/07/28 00:50:06;;;;;;;11.10;4.10;;;;;;;14.87;100.00;98843.94;4700883;30;20061;-77
2021/07/28 00:53:19;;;;;;;11.47;5.10;;;;;;;14.89;100.00;98838.56;4700326;30;20065;-77
2021/07/28 00:56:23;;;;;;;16.88;4.07;;;;;;;14.93;100.00;98839.00;4700198;30;20064;-77
2021/07/28 00:59:26;;;;;;;13.93;3.05;;;;;;;14.95;100.00;98833.63;4698728;30;20412;-78
2021/07/28 01:02:30;;;;;;;20.40;5.97;;;;;;;14.95;100.00;98832.88;4700381;30;20069;-78
2021/07/28 01:05:34;;;;;;;17.08;3.92;;;;;;;14.93;100.00;98827.81;4682916;30;20065;-78
2021/07/28 01:08:38;;;;;;;15.55;4.25;;;;;;;14.93;100.00;98839.00;4682884;30;20064;-77
2021/07/28 01:11:41;;;;;;;9.70;3.58;;;;;;;14.94;100.00;98834.91;4682857;30;20618;-77
2021/07/28 01:14:44;;;;;;;10.88;3.60;;;;;;;14.99;100.00;98836.88;4698416;30;20069;-77
2021/07/28 01:17:50;;;;;;;15.18;4.82;;;;;;;15.01;100.00;98839.91;4690510;30;20085;-77
2021/07/28 01:20:54;;;;;;;19.63;4.95;;;;;;;15.02;100.00;98835.06;4682877;30;20069;-77
2021/07/28 01:23:57;;;;;;;15.00;5.38;;;;;;;15.07;100.00;98831.44;4682893;30;20061;-77
2021/07/28 01:27:02;;;;;;;18.13;5.55;;;;;;;15.04;100.00;98827.66;4682942;30;20061;-77
2021/07/28 01:30:05;;;;;;;10.75;4.43;;;;;;;15.07;100.00;98826.56;4683054;30;20065;-77
2021/07/28 01:33:09;;;;;;;19.75;4.90;;;;;;;15.12;100.00;98822.94;4682989;30;20511;-77
2021/07/28 01:36:21;;;;;;;14.27;3.75;;;;;;;15.13;100.00;98827.28;4682942;30;20065;-77
2021/07/28 01:39:24;;;;;;;9.80;3.80;;;;;;;15.08;100.00;98830.91;4682481;30;20057;-77
2021/07/28 01:42:28;;;;;;;10.05;3.30;;;;;;;15.05;100.00;98834.75;4682372;30;20061;-77
2021/07/28 01:45:31;;;;;;;22.05;5.10;;;;;;;15.00;100.00;98830.00;4682505;30;20065;-77
2021/07/28 01:48:35;;;;;;;11.23;4.10;;;;;;;14.93;100.00;98827.81;4682136;30;20084;-77
2021/07/28 01:51:42;;;;;;;11.63;3.13;;;;;;;14.89;100.00;98821.75;4682225;30;20078;-77
2021/07/28 01:54:45;;;;;;;14.68;3.90;;;;;;;14.85;100.00;98814.91;4682401;30;20106;-78
2021/07/28 01:57:48;;;;;;;14.75;3.78;;;;;;;14.78;100.00;98809.91;4681645;30;20065;-77
2021/07/28 02:00:52;;;;;;;22.88;5.30;;;;;;;14.73;100.00;98816.34;4681989;30;20676;-78
2021/07/28 02:03:58;;;;;;;9.75;2.72;;;;;;;14.67;100.00;98815.66;4687567;30;20068;-77
2021/07/28 02:07:02;;;;;;;11.90;3.67;;;;;;;14.67;100.00;98821.25;4698566;30;20428;-77
2021/07/28 02:10:06;;;;;;;18.63;3.67;;;;;;;14.62;100.00;98816.50;4698179;30;20064;-78
2021/07/28 02:13:10;;;;;;;14.07;4.93;;;;;;;14.60;100.00;98817.00;4698665;30;20060;-77
2021/07/28 02:16:14;;;;;;;12.27;3.55;;;;;;;14.59;100.00;98814.75;4698659;30;20067;-77
2021/07/28 02:19:17;;;;;;;18.55;5.57;;;;;;;14.56;100.00;98810.94;4698268;30;20064;-77
2021/07/28 02:22:21;;;;;;;9.07;3.65;;;;;;;14.55;100.00;98817.84;4698022;30;20072;-77
2021/07/28 02:25:24;;;;;;;16.02;3.90;;;;;;;14.50;100.00;98818.66;4697917;30;20064;-77
2021/07/28 02:28:29;;;;;;;13.55;4.25;;;;;;;14.43;100.00;98808.06;4697903;30;20080;-77
2021/07/28 02:31:32;;;;;;;12.23;3.65;;;;;;;14.41;100.00;98810.63;4697761;30;20065;-75
2021/07/28 02:34:36;;;;;;;11.82;4.90;;;;;;;14.41;100.00;98802.22;4697484;30;20273;-74
2021/07/28 02:37:43;;;;;;;13.23;4.03;;;;;;;14.40;100.00;98795.13;4697972;30;20146;-76
2021/07/28 02:40:47;;;;;;;22.80;4.45;;;;;;;14.44;100.00;98806.78;4661165;30;20077;-75
2021/07/28 02:43:50;;;;;;;13.18;3.28;;;;;;;14.42;100.00;98800.94;4663366;30;20056;-75
2021/07/28 02:46:54;;;;;;;13.23;4.43;;;;;;;14.43;100.00;98791.25;4665053;30;20080;-75
2021/07/28 02:49:57;;;;;;;13.18;3.55;;;;;;;14.51;100.00;98788.63;4664025;30;20332;-75
2021/07/28 02:53:01;;;;;;;14.43;3.80;;;;;;;14.55;100.00;98789.06;4664201;30;20064;-75
2021/07/28 02:56:05;;;;;;;26.58;4.28;;;;;;;14.60;100.00;98783.38;4664405;30;20635;-75
2021/07/28 02:59:08;;;;;;;16.20;4.45;;;;;;;14.63;100.00;98779.53;4654153;30;20084;-75
2021/07/28 03:02:12;;;;;;;16.33;4.10;;;;;;;14.65;100.00;98779.75;4688966;30;20045;-75
2021/07/28 03:05:15;;;;;;;13.82;5.15;;;;;;;14.65;100.00;98779.75;4698898;30;20057;-75
2021/07/28 03:08:18;;;;;;;10.52;3.22;;;;;;;14.66;100.00;98777.72;4693839;30;20053;-75
2021/07/28 03:11:22;;;;;;;11.52;3.85;;;;;;;14.66;100.00;98769.31;4686520;30;20072;-75
2021/07/28 03:14:25;;;;;;;12.45;3.55;;;;;;;14.68;100.00;98775.91;4698171;30;20412;-74
2021/07/28 03:17:29;;;;;;;14.13;4.20;;;;;;;14.68;100.00;98773.13;4698165;30;20056;-75
2021/07/28 03:20:32;;;;;;;6.45;2.53;;;;;;;14.70;100.00;98776.13;4698031;30;20060;-74
2021/07/28 03:23:36;;;;;;;12.25;2.90;;;;;;;14.70;100.00;98767.72;4697028;30;20412;-75
2021/07/28 03:26:39;;;;;;;14.20;3.80;;;;;;;14.70;100.00;98770.53;4697485;30;20459;-75
2021/07/28 03:29:43;;;;;;;11.32;3.35;;;;;;;14.69;100.00;98762.63;4698201;30;20074;-75
2021/07/28 03:32:46;;;;;;;9.45;2.65;;;;;;;14.68;100.00;98761.91;4698490;30;20082;-75
2021/07/28 03:35:50;;;;;;;10.73;2.95;;;;;;;14.66;100.00;98761.66;4698245;30;20061;-74
2021/07/28 03:38:53;;;;;;;9.35;2.83;;;;;;;14.67;100.00;98754.78;4697713;30;20064;-75
2021/07/28 03:41:56;;;;;;;13.73;3.28;;;;;;;14.71;100.00;98766.44;4698535;30;20061;-75
2021/07/28 03:45:00;;;;;;;18.73;4.40;;;;;;;14.72;100.00;98767.19;4699035;30;20074;-76
2021/07/28 03:48:04;;;;;;;6.97;2.05;;;;;;;14.73;100.00;98763.84;4702156;30;20056;-75
2021/07/28 03:51:08;;;;;;;6.32;1.90;;;;;;;14.68;100.00;98761.91;4702144;30;20069;-75
2021/07/28 03:54:11;;;;;;;2.25;0.95;;;;;;;14.59;100.00;98762.28;4700860;30;20056;-76
2021/07/28 03:57:14;;;;;;;4.95;1.95;;;;;;;14.53;100.00;98758.03;4701598;30;20071;-77
2021/07/28 04:00:18;;;;;;;2.42;1.25;;;;;;;14.43;100.00;98763.22;4701433;30;20069;-77
2021/07/28 04:03:22;;;;;;;1.98;1.15;;;;;;;14.37;100.00;98770.94;4701163;30;20055;-77
2021/07/28 04:06:25;;;;;;;7.15;0.98;;;;;;;14.36;100.00;98775.03;4701586;30;20060;-75
2021/07/28 04:09:28;;;;;;;2.05;0.40;;;;;;;14.29;100.00;98781.25;4700230;30;20083;-75
2021/07/28 04:12:32;;;;;;;3.08;0.85;;;;;;;14.19;100.00;98788.44;4701094;30;20064;-75
2021/07/28 04:15:35;;;;;;;0.75;0.50;;;;;;;14.15;100.00;98787.97;4700431;30;20056;-75
2021/07/28 04:18:39;;;;;;;0.73;0.32;;;;;;;14.10;100.00;98788.78;4701270;30;20069;-75
2021/07/28 04:21:42;;;;;;;2.40;0.57;;;;;;;14.04;100.00;98788.09;4692857;30;20082;-76
2021/07/28 04:24:47;;;;;;;0.43;0.30;;;;;;;14.02;100.00;98801.84;4691523;30;20072;-76
2021/07/28 04:27:50;;;;;;;0.90;0.40;;;;;;;13.93;100.00;98793.81;4683978;30;20069;-77
2021/07/28 04:30:53;;;;;;;1.15;0.73;;;;;;;13.88;100.00;98797.44;4683879;30;20416;-78
2021/07/28 04:33:57;;;;;;;0.60;0.47;;;;;;;13.87;100.00;98798.69;4687186;30;20526;-77
2021/07/28 04:37:00;;;;;;;1.00;0.47;;;;;;;13.83;100.00;98790.59;4691889;30;20061;-75
2021/07/28 04:40:04;;;;;;;1.17;0.47;;;;;;;13.81;100.00;98803.59;4693005;30;20060;-78
2021/07/28 04:43:08;;;;;;;0.95;0.20;;;;;;;13.76;100.00;98798.81;4701172;30;20068;-77
2021/07/28 04:46:11;;;;;;;1.48;0.43;;;;;;;13.73;100.00;98802.66;4701041;30;20060;-76
2021/07/28 04:49:15;;;;;;;1.38;0.52;;;;;;;13.71;100.00;98794.03;4692441;30;20519;-78
2021/07/28 04:52:24;;;;;;;0.55;0.25;;;;;;;13.74;100.00;98799.34;4684946;30;20057;-78
2021/07/28 04:55:28;;;;;;;2.17;0.75;;;;;;;13.76;100.00;98796.78;4683131;30;20069;-77
2021/07/28 04:58:31;;;;;;;0.65;0.28;;;;;;;13.78;100.00;98790.66;4698668;30;20076;-78
2021/07/28 05:01:34;;;;;;;0.90;0.52;;;;;;;13.80;100.00;98786.03;4696744;30;20064;-78
2021/07/28 05:04:38;;;;;;;2.40;0.68;;;;;;;13.79;100.00;98790.13;4690437;30;20073;-77
2021/07/28 05:07:42;;;;;;;0.80;0.13;;;;;;;13.84;100.00;98794.91;4687907;30;20053;-77
2021/07/28 05:10:47;;;;;;;2.35;0.77;;;;;;;13.85;100.00;98790.84;4692285;30;20057;-76
2021/07/28 05:13:51;;;;;;;0.65;0.22;;;;;;;13.84;100.00;98797.72;4683578;30;20065;-76
2021/07/28 05:16:54;;;;;;;1.50;0.70;;;;;;;13.86;100.00;98794.41;4683991;30;20131;-76
2021/07/28 05:19:57;;;;;;;0.47;0.30;;;;;;;13.86;100.00;98803.53;4683326;30;20085;-76
2021/07/28 05:23:01;;;;;;;1.70;0.47;;;;;;;13.83;100.00;98807.41;4683354;30;20065;-75
2021/07/28 05:26:04;;;;;;;2.22;0.57;;;;;;;13.84;100.00;98805.38;4689341;30;20060;-76
2021/07/28 05:29:09;;;;;;;0.57;0.20;;;;;;;13.84;100.00;98805.38;4692612;30;20060;-76
2021/07/28 05:32:13;;;;;;;3.92;0.80;;;;;;;13.82;100.00;98799.53;4683027;30;20090;-76
2021/07/28 05:35:16;;;;;;;0.65;0.40;;;;;;;13.83;100.00;98801.81;4682839;30;20416;-77
2021/07/28 05:38:19;;;;;;;1.27;0.55;;;;;;;13.82;100.00;98799.53;4682623;30;20069;-77
2021/07/28 05:41:22;;;;;;;0.50;0.40;;;;;;;13.81;100.00;98798.00;4682416;30;20061;-76
2021/07/28 05:44:28;;;;;;;1.48;0.68;;;;;;;13.80;100.00;98793.69;4682338;30;20385;-76
2021/07/28 05:47:32;;;;;;;4.65;0.55;;;;;;;13.81;100.00;98793.16;4682603;30;20076;-77
2021/07/28 05:50:36;;;;;;;2.20;0.55;;;;;;;13.77;100.00;98792.72;4682234;30;20068;-79
2021/07/28 05:53:39;;;;;;;2.45;0.30;;;;;;;13.69;100.00;98798.09;4682460;30;20072;-78
2021/07/28 05:56:42;;;;;;;1.10;0.43;;;;;;;13.76;100.00;98796.00;4682089;30;20061;-78
2021/07/28 05:59:46;;;;;;;2.75;0.50;;;;;;;13.79;100.00;98794.97;4682672;30;20065;-78
2021/07/28 06:02:49;;;;;;;1.20;0.50;;;;;;;13.83;100.00;98784.25;4682518;30;20065;-78
2021/07/28 06:05:56;;;;;;;1.35;0.82;;;;;;;13.86;100.00;98788.81;4699689;30;20219;-77
2021/07/28 06:09:00;;;;;;;0.68;0.40;;;;;;;13.88;100.00;98781.38;4699648;30;20415;-78
2021/07/28 06:12:04;;;;;;;1.45;0.30;;;;;;;13.89;100.00;98785.72;4701160;30;20065;-76
2021/07/28 06:15:08;;;;;;;0.25;0.20;;;;;;;13.92;100.00;98781.09;4698106;30;20064;-76
2021/07/28 06:18:12;;;;;;;1.23;0.32;;;;;;;13.95;100.00;98780.81;4699323;30;20068;-76
2021/07/28 06:21:15;;;;;;;1.45;0.40;;;;;;;14.00;100.00;98788.41;4699438;30;20080;-76
2021/07/28 06:24:19;;;;;;;1.08;0.40;;;;;;;14.05;100.00;98789.63;4698994;30;20060;-77
2021/07/28 06:27:22;;;;;;;5.18;0.30;;;;;;;14.05;100.00;98784.78;4698930;30;20064;-77
2021/07/28 06:30:26;;;;;;;2.70;0.30;;;;;;;14.04;100.00;98779.69;4699040;30;20064;-77
2021/07/28 06:33:29;;;;;;;0.13;0.13;;;;;;;14.02;100.00;98779.47;4698766;30;20072;-78
2021/07/28 06:36:32;;;;;;;0.40;0.10;;;;;;;14.01;100.00;98778.69;4698984;30;20068;-76
2021/07/28 06:39:36;;;;;;;1.77;0.47;;;;;;;14.02;100.00;98782.25;4698921;30;20071;-76
2021/07/28 06:42:40;;;;;;;4.40;0.40;;;;;;;14.06;100.00;98785.53;4699089;30;20064;-77
2021/07/28 06:45:43;;;;;;;1.10;0.60;;;;;;;14.06;100.00;98785.53;4697801;30;20060;-77
2021/07/28 06:48:47;;;;;;;7.43;0.50;;;;;;;14.09;100.00;98776.84;4698569;30;20412;-76
2021/07/28 06:51:50;;;;;;;17.75;0.95;;;;;;;14.10;100.00;98786.75;4699164;30;20069;-76
2021/07/28 06:54:54;;;;;;;1.50;0.38;;;;;;;14.15;100.00;98783.13;4699065;30;20077;-76
2021/07/28 06:57:57;;;;;;;2.17;0.73;;;;;;;14.21;100.00;98786.63;4698989;30;20404;-76
2021/07/28 07:01:01;;;;;;;2.08;0.20;;;;;;;14.27;100.00;98783.78;4698968;30;20070;-76
2021/07/28 07:04:05;;;;;;;1.92;0.38;;;;;;;14.38;100.00;98783.66;4698801;30;20080;-78
2021/07/28 07:07:08;;;;;;;0.32;0.22;;;;;;;14.46;100.00;98789.44;4698379;30;20419;-78
2021/07/28 07:10:12;;;;;;;1.42;0.60;;;;;;;14.59;100.00;98793.09;4698933;30;20068;-77
2021/07/28 07:13:15;;;;;;;2.47;0.93;;;;;;;14.79;100.00;98789.75;4698374;30;20061;-77
2021/07/28 07:16:19;;;;;;;1.95;0.40;;;;;;;15.09;100.00;98790.34;4698392;30;20057;-78
2021/07/28 07:19:22;;;;;;;2.30;0.85;;;;;;;15.44;100.00;98786.53;4697917;30;20076;-78
2021/07/28 07:22:26;;;;;;;2.88;0.60;;;;;;;15.74;100.00;98784.22;4698080;30;20511;-78
2021/07/28 07:25:29;;;;;;;1.63;0.40;;;;;;;15.73;100.00;98784.75;4698221;30;20530;-78
2021/07/28 07:28:34;;;;;;;4.72;0.35;;;;;;;15.49;100.00;98777.25;4698179;30;20064;-77
2021/07/28 07:31:39;;;;;;;1.83;0.32;;;;;;;15.29;100.00;98777.81;4698090;30;20057;-78
2021/07/28 07:34:42;;;;;;;1.23;0.70;;;;;;;15.10;100.00;98780.66;4698136;30;20516;-78
2021/07/28 07:37:46;;;;;;;1.02;0.40;;;;;;;15.01;100.00;98783.06;4698338;30;20060;-78
2021/07/28 07:40:49;;;;;;;0.70;0.30;;;;;;;14.92;100.00;98787.03;4698489;30;20064;-78
2021/07/28 07:43:52;;;;;;;0.82;0.40;;;;;;;14.86;100.00;98789.16;4698317;30;20530;-77
2021/07/28 07:46:55;;;;;;;2.90;0.40;;;;;;;14.82;100.00;98785.91;4697636;30;20056;-77
2021/07/28 07:49:59;;;;;;;0.95;0.43;;;;;;;14.85;100.00;98782.06;4698154;30;20060;-77
2021/07/28 07:53:03;;;;;;;1.88;0.85;;;;;;;14.94;100.00;98784.44;4697702;30;20061;-77
2021/07/28 07:56:07;;;;;;;3.38;0.50;;;;;;;15.01;100.00;98789.44;4698207;30;20057;-78
2021/07/28 07:59:10;;;;;;;1.50;0.60;;;;;;;15.07;100.00;98787.31;4698425;30;20435;-77
2021/07/28 08:02:13;;;;;;;6.50;0.82;;;;;;;15.12;100.00;98788.53;4698225;30;20080;-77
2021/07/28 08:05:17;;;;;;;3.78;0.50;;;;;;;15.13;100.00;98790.81;4681806;30;20061;-78
2021/07/28 08:08:21;;;;;;;3.60;0.55;;;;;;;15.18;100.00;98798.38;4680894;30;20065;-77
2021/07/28 08:11:24;;;;;;;1.58;0.40;;;;;;;15.10;100.00;98794.69;4680598;30;20118;-77
2021/07/28 08:14:28;;;;;;;1.55;0.85;;;;;;;15.13;100.00;98796.44;4680779;30;20061;-78
2021/07/28 08:17:31;;;;;;;1.95;0.57;;;;;;;15.20;100.00;98801.41;4682193;30;20519;-77
2021/07/28 08:20:36;;;;;;;1.83;0.70;;;;;;;15.40;100.00;98786.03;4688589;30;20069;-80
2021/07/28 08:23:41;;;;;;;2.95;0.60;;;;;;;15.52;100.00;98781.06;4691884;30;20063;-76
2021/07/28 08:26:44;;;;;;;5.65;0.90;;;;;;;15.44;100.00;98786.53;4697811;30;20052;-77
2021/07/28 08:29:48;;;;;;;6.20;0.75;;;;;;;15.40;100.00;98783.25;4686860;30;20519;-77
2021/07/28 08:32:51;;;;;;;3.35;0.80;;;;;;;15.58;100.00;98792.94;4690817;30;20077;-76
2021/07/28 08:35:56;;;;;;;6.53;1.05;;;;;;;15.63;100.00;98786.47;4701236;30;20064;-76
2021/07/28 08:38:59;;;;;;;0.57;0.40;;;;;;;15.56;100.00;98787.09;4701310;30;20076;-77
2021/07/28 08:42:05;;;;;;;7.22;1.08;;;;;;;15.59;100.00;98786.78;4701025;30;20064;-76
2021/07/28 08:45:09;;;;;;;0.55;0.30;;;;;;;15.46;100.00;98783.19;4701196;30;20060;-76
2021/07/28 08:48:16;;;;;;;1.75;0.20;;;;;;;15.33;100.00;98771.91;4701273;30;20064;-76
2021/07/28 08:51:24;;;;;;;0.68;0.25;;;;;;;15.27;100.00;98783.19;4700494;30;20064;-78
2021/07/28 08:54:28;;;;;;;1.27;0.65;;;;;;;15.40;100.00;98785.31;4699801;30;20060;-75
2021/07/28 08:57:32;;;;;;;0.98;0.50;;;;;;;15.52;100.00;98783.84;4700311;30;20053;-75
2021/07/28 09:00:46;;;;;;;1.67;0.60;;;;;;;15.50;100.00;98778.78;4700656;30;20061;-74
2021/07/28 09:03:49;;;;;;;0.57;0.52;;;;;;;15.43;100.00;98778.63;4700569;30;20060;-74
2021/07/28 09:06:54;;;;;;;1.42;0.43;;;;;;;15.42;100.00;98769.44;4700766;30;20072;-75
2021/07/28 09:09:57;;;;;;;1.35;0.32;;;;;;;15.65;100.00;98761.44;4700251;30;20118;-77
2021/07/28 09:13:01;;;;;;;1.58;0.77;;;;;;;15.87;100.00;98758.25;4700784;30;20412;-76
2021/07/28 09:16:12;;;;;;;1.98;0.43;;;;;;;16.07;100.00;98756.84;4700449;30;20724;-79
2021/07/28 09:19:42;;;;;;;1.52;0.30;;;;;;;16.20;100.00;98754.78;4700625;30;20057;-77
2021/07/28 09:22:45;;;;;;;0.60;0.30;;;;;;;16.18;100.00;98746.13;4700463;30;20064;-76
2021/07/28 09:25:54;;;;;;;1.58;0.63;;;;;;;16.37;100.00;98749.56;4700573;30;20460;-77
2021/07/28 09:29:12;;;;;;;0.63;0.43;;;;;;;16.46;100.00;98746.31;4700242;30;20079;-74
2021/07/28 09:32:15;;;;;;;3.95;0.28;;;;;;;16.59;100.00;98740.72;4700272;30;20065;-75
2021/07/28 09:35:47;;;;;;;1.85;0.43;;;;;;;16.75;100.00;98746.50;4700058;30;20060;-74
2021/07/28 09:38:51;;;;;;;1.50;0.75;;;;;;;16.82;100.00;98731.78;4700286;30;20088;-75
2021/07/28 09:41:57;;;;;;;0.52;0.13;;;;;;;17.01;100.00;98735.94;4699254;30;20419;-75
2021/07/28 09:45:00;;;;;;;0.30;0.20;;;;;;;17.13;100.00;98742.06;4700137;30;20069;-74
2021/07/28 09:48:04;;;;;;;0.63;0.30;;;;;;;17.04;100.00;98739.72;4700082;30;20064;-75
2021/07/28 09:51:21;;;;;;;2.20;0.50;;;;;;;16.90;100.00;98741.81;4699909;30;20080;-75
2021/07/28 09:54:31;;;;;;;2.78;0.40;;;;;;;16.81;100.00;98733.84;4699275;30;20064;-75
2021/07/28 09:57:34;;;;;;;1.33;0.45;;;;;;;16.80;100.00;98725.97;4698518;30;20085;-74
2021/07/28 10:00:38;;;;;;;2.47;0.47;;;;;;;16.93;100.00;98711.84;4699728;30;20064;-74
2021/07/28 10:03:41;;;;;;;4.05;0.68;;;;;;;17.23;100.00;98718.53;4699134;30;20057;-75
2021/07/28 10:06:48;;;;;;;3.05;0.65;;;;;;;17.49;100.00;98705.59;4699729;30;20073;-75
2021/07/28 10:10:04;;;;;;;3.42;0.70;;;;;;;17.69;100.00;98702.81;4693425;30;20057;-74
2021/07/28 10:13:07;;;;;;;4.22;0.73;;;;;;;17.79;100.00;98706.63;4689351;30;20061;-76
2021/07/28 10:16:10;;;;;;;2.15;0.47;;;;;;;17.82;100.00;98693.50;4699422;30;20514;-74
2021/07/28 10:19:15;;;;;;;3.40;0.45;;;;;;;17.58;100.00;98682.63;4699267;30;20061;-73
2021/07/28 10:22:19;;;;;;;8.18;1.00;;;;;;;17.81;100.00;98687.09;4700581;30;20064;-73
2021/07/28 10:25:23;;;;;;;3.38;0.88;;;;;;;17.89;100.00;98675.88;4698293;30;20068;-76
2021/07/28 10:28:27;;;;;;;3.28;0.88;;;;;;;17.82;100.00;98671.69;4698814;30;20061;-74
2021/07/28 10:31:44;;;;;;;3.22;0.75;;;;;;;17.47;100.00;98661.13;4697814;30;20064;-74
2021/07/28 10:34:47;;;;;;;2.92;0.38;;;;;;;17.18;100.00;98660.34;4697356;30;20431;-74
2021/07/28 10:37:53;;;;;;;0.75;0.20;;;;;;;16.91;100.00;98663.84;4699292;30;20069;-74
2021/07/28 10:40:59;;;;;;;3.67;0.55;;;;;;;16.68;100.00;98660.78;4699207;30;20065;-75
2021/07/28 10:44:14;;;;;;;5.30;1.15;;;;;;;16.44;100.00;98673.03;4699040;30;20562;-74
2021/07/28 10:47:19;;;;;;;1.42;0.63;;;;;;;16.23;100.00;98675.03;4697728;30;20060;-74
2021/07/28 10:50:25;;;;;;;1.70;0.68;;;;;;;16.03;100.00;98674.94;4696732;30;20069;-75
2021/07/28 10:53:48;;;;;;;2.97;0.60;;;;;;;15.77;100.00;98672.91;4696500;30;20061;-74
2021/07/28 10:57:08;;;;;;;1.50;0.68;;;;;;;15.67;100.00;98681.03;4696807;30;20084;-73
2021/07/28 11:00:13;;;;;;;3.65;0.40;;;;;;;15.58;100.00;98687.06;4696915;30;20068;-72
2021/07/28 11:03:18;;;;;;;0.45;0.25;;;;;;;15.52;100.00;98694.81;4698490;30;20069;-73
2021/07/28 11:06:22;;;;;;;2.80;0.88;;;;;;;15.51;100.00;98673.66;4697034;30;20052;-74
2021/07/28 11:09:28;;;;;;;0.10;0.10;;;;;;;15.39;100.00;98677.94;4698640;30;20077;-73
2021/07/28 11:12:31;;;;;;;1.63;1.05;;;;;;;15.44;100.00;98681.97;4697723;30;20064;-73
2021/07/28 11:15:36;;;;;;;1.73;0.65;;;;;;;16.01;100.00;98683.94;4697442;30;20056;-74
2021/07/28 11:18:43;;;;;;;3.88;0.88;;;;;;;16.91;100.00;98680.72;4698430;30;20065;-73
2021/07/28 11:21:47;;;;;;;3.75;0.60;;;;;;;17.28;100.00;98669.78;4698752;30;20057;-73
2021/07/28 11:24:57;;;;;;;4.25;0.90;;;;;;;17.55;100.00;98676.03;4698614;30;20512;-73
2021/07/28 11:28:05;;;;;;;0.65;0.35;;;;;;;17.74;100.00;98676.53;4697281;30;20074;-73
2021/07/28 11:31:08;;;;;;;2.40;0.50;;;;;;;17.62;100.00;98669.72;4688619;30;20065;-75
2021/07/28 11:34:20;;;;;;;2.42;0.60;;;;;;;17.50;100.00;98678.97;4690640;30;20088;-75
2021/07/28 11:37:24;;;;;;;0.57;0.50;;;;;;;17.31;100.00;98679.19;4698255;30;20069;-77
2021/07/28 11:40:48;;;;;;;3.80;0.68;;;;;;;16.98;100.00;98669.53;4698207;30;20065;-77
2021/07/28 11:43:56;;;;;;;0.63;0.25;;;;;;;16.91;100.00;98663.84;4698549;30;20419;-77
2021/07/28 11:46:59;;;;;;;2.83;0.40;;;;;;;16.94;100.00;98651.47;4698463;30;20064;-77
2021/07/28 11:50:04;;;;;;;0.73;0.30;;;;;;;16.81;100.00;98659.97;4698582;30;20080;-77
2021/07/28 11:53:08;;;;;;;0.50;0.38;;;;;;;16.61;100.00;98648.16;4697342;30;20077;-77
2021/07/28 11:56:13;;;;;;;1.02;0.30;;;;;;;16.40;100.00;98641.72;4697544;30;20061;-77
2021/07/28 11:59:23;;;;;;;0.43;0.30;;;;;;;16.28;100.00;98640.47;4698513;30;20065;-78
2021/07/28 12:02:27;;;;;;;3.03;0.73;;;;;;;16.32;100.00;98631.69;4697879;30;20064;-77
2021/07/28 12:05:30;;;;;;;2.53;0.77;;;;;;;16.50;100.00;98637.16;4680825;30;20057;-78
2021/07/28 12:08:35;;;;;;;0.75;0.20;;;;;;;17.25;100.00;98647.63;4684103;30;20085;-77
2021/07/28 12:11:52;;;;;;;3.28;0.82;;;;;;;17.94;100.00;98650.38;4683548;30;20061;-78
2021/07/28 12:15:10;;;;;;;0.57;0.22;;;;;;;17.89;100.00;98653.34;4684607;30;20064;-77
2021/07/28 12:18:13;;;;;;;0.43;0.30;;;;;;;18.45;100.00;98644.06;4693273;30;20069;-76
2021/07/28 12:21:16;;;;;;;0.70;0.20;;;;;;;18.70;100.00;98645.06;4696782;30;20515;-75
2021/07/28 12:24:42;;;;;;;2.05;0.50;;;;;;;18.38;100.00;98642.69;4701727;30;20412;-79
2021/07/28 12:27:52;;;;;;;0.40;0.25;;;;;;;18.38;100.00;98639.13;4694420;30;20061;-79
2021/07/28 12:30:56;;;;;;;0.63;0.10;;;;;;;18.46;100.00;98642.72;4691677;30;20065;-78
2021/07/28 12:34:21;;;;;;;2.03;0.22;;;;;;;19.27;100.00;98640.63;4683960;30;20065;-76
2021/07/28 12:37:25;;;;;;;0.38;0.20;;;;;;;19.29;100.00;98632.34;4692662;30;20065;-76
2021/07/28 12:40:29;;;;;;;1.27;0.22;;;;;;;19.76;100.00;98636.63;4683469;30;20061;-75
2021/07/28 12:43:37;;;;;;;1.85;0.00;;;;;;;19.81;100.00;98636.44;4683137;30;20503;-77
2021/07/28 12:46:41;;;;;;;0.22;0.10;;;;;;;19.57;100.00;98645.50;4683696;30;20065;-78
2021/07/28 12:49:44;;;;;;;0.20;0.20;;;;;;;19.73;100.00;98649.06;4684068;30;20132;-77
2021/07/28 12:52:48;;;;;;;1.00;0.20;;;;;;;19.48;100.00;98648.91;4683675;30;20425;-77
2021/07/28 12:55:53;;;;;;;3.42;0.45;;;;;;;19.22;100.00;98644.38;4683456;30;20057;-77
2021/07/28 12:58:56;;;;;;;4.00;0.77;;;;;;;19.21;100.00;98642.84;4684071;30;20061;-78
2021/07/28 13:02:01;;;;;;;2.20;0.55;;;;;;;19.06;100.00;98648.50;4683815;30;20061;-79
2021/07/28 13:05:05;;;;;;;0.93;0.30;;;;;;;19.35;100.00;98630.09;4698398;30;20061;-78
2021/07/28 13:08:10;;;;;;;2.30;0.57;;;;;;;19.86;100.00;98623.44;4701219;30;20064;-77
2021/07/28 13:11:14;;;;;;;7.25;0.52;;;;;;;19.86;100.00;98617.78;4701118;30;20452;-77
2021/07/28 13:14:18;;;;;;;1.38;0.30;;;;;;;19.75;100.00;98618.19;4701793;30;20549;-77
2021/07/28 13:17:21;;;;;;;5.03;0.22;;;;;;;19.84;100.00;98609.13;4703842;30;20056;-77
2021/07/28 13:20:25;;;;;;;2.13;0.40;;;;;;;20.06;100.00;98611.09;4703038;30;20060;-78
2021/07/28 13:23:30;;;;;;;2.63;0.35;;;;;;;20.10;100.00;98600.16;4708302;30;20068;-79
2021/07/28 13:26:34;;;;;;;0.40;0.25;;;;;;;20.11;100.00;98601.66;4705901;30;20523;-78
2021/07/28 13:29:37;;;;;;;1.23;0.28;;;;;;;19.70;100.00;98605.00;4701464;30;20069;-78
2021/07/28 13:32:42;;;;;;;1.23;0.20;;;;;;;19.09;100.00;98599.41;4692677;30;20190;-78
2021/07/28 13:35:45;;;;;;;1.17;0.10;;;;;;;18.62;100.00;98599.16;4689565;30;20067;-77
2021/07/28 13:38:49;;;;;;;2.78;0.20;;;;;;;18.23;100.00;98591.91;4700962;30;20075;-76
2021/07/28 13:41:52;;;;;;;0.70;0.10;;;;;;;17.85;100.00;98590.97;4697993;30;20077;-76
2021/07/28 13:44:56;;;;;;;0.47;0.10;;;;;;;17.67;100.00;98592.75;4697737;30;20412;-76
2021/07/28 13:47:59;;;;;;;2.33;0.30;;;;;;;17.54;100.00;98590.09;4698101;30;20065;-76
2021/07/28 13:51:05;;;;;;;0.57;0.10;;;;;;;17.33;100.00;98587.28;4697518;30;20068;-75
2021/07/28 13:54:08;;;;;;;1.08;0.13;;;;;;;17.01;100.00;98600.16;4697613;30;20572;-76
2021/07/28 13:57:17;;;;;;;0.15;0.13;;;;;;;16.72;100.00;98613.41;4697646;30;20076;-76
2021/07/28 14:00:20;;;;;;;0.63;0.43;;;;;;;16.36;100.00;98635.69;4695877;30;20064;-74
2021/07/28 14:03:23;;;;;;;0.63;0.50;;;;;;;15.80;100.00;98638.16;4686022;30;20532;-77
2021/07/28 14:06:27;;;;;;;0.98;0.10;;;;;;;15.10;100.00;98618.00;4698408;30;20069;-74
2021/07/28 14:09:30;;;;;;;7.00;0.55;;;;;;;14.55;100.00;98624.53;4698695;30;20077;-74
2021/07/28 14:12:34;;;;;;;0.63;0.30;;;;;;;14.25;100.00;98626.72;4698415;30;20127;-74
2021/07/28 14:15:39;;;;;;;0.10;0.10;;;;;;;14.12;100.00;98635.78;4698741;30;20088;-74
2021/07/28 14:18:42;;;;;;;1.83;0.30;;;;;;;13.99;100.00;98657.38;4697291;30;20057;-74
2021/07/28 14:21:47;;;;;;;11.68;0.30;;;;;;;13.89;100.00;98659.00;4697975;30;20698;-74